sensor_id;sensor_type;location;lat;lon;timestamp;P1;durP1;ratioP1;P2;durP2;ratioP2
38847;SDS011;24602;44.780;20.408;2022-08-19T00:02:03;9.27;;;5.10;;
38847;SDS011;24602;44.780;20.408;2022-08-19T00:04:34;9.25;;;5.15;;
38847;SDS011;24602;44.780;20.408;2022-08-19T00:07:06;15.43;;;5.70;;
38847;SDS011;24602;44.780;20.408;2022-08-19T00:09:34;8.35;;;4.40;;
38847;SDS011;24602;44.780;20.408;2022-08-19T00:12:26;7.38;;;5.10;;
38847;SDS011;24602;44.780;20.408;2022-08-19T00:15:15;11.30;;;5.57;;
38847;SDS011;24602;44.780;20.408;2022-08-19T00:17:50;13.73;;;5.97;;
38847;SDS011;24602;44.780;20.408;2022-08-19T00:20:24;10.27;;;5.78;;
38847;SDS011;24602;44.780;20.408;2022-08-19T00:22:56;12.20;;;5.70;;
38847;SDS011;24602;44.780;20.408;2022-08-19T00:25:24;11.63;;;5.35;;
38847;SDS011;24602;44.780;20.408;2022-08-19T00:27:57;8.63;;;5.25;;
38847;SDS011;24602;44.780;20.408;2022-08-19T00:30:30;8.10;;;5.40;;
38847;SDS011;24602;44.780;20.408;2022-08-19T00:33:02;7.87;;;5.20;;
38847;SDS011;24602;44.780;20.408;2022-08-19T00:35:34;10.35;;;5.75;;
38847;SDS011;24602;44.780;20.408;2022-08-19T00:38:06;8.90;;;4.78;;
38847;SDS011;24602;44.780;20.408;2022-08-19T00:40:35;10.27;;;4.53;;
38847;SDS011;24602;44.780;20.408;2022-08-19T00:43:12;10.25;;;5.22;;
38847;SDS011;24602;44.780;20.408;2022-08-19T00:45:47;10.02;;;5.30;;
38847;SDS011;24602;44.780;20.408;2022-08-19T00:48:18;10.15;;;5.18;;
38847;SDS011;24602;44.780;20.408;2022-08-19T00:50:52;8.90;;;5.40;;
38847;SDS011;24602;44.780;20.408;2022-08-19T00:53:26;11.82;;;5.45;;
38847;SDS011;24602;44.780;20.408;2022-08-19T00:56:03;9.95;;;5.03;;
38847;SDS011;24602;44.780;20.408;2022-08-19T00:58:36;10.07;;;4.78;;
38847;SDS011;24602;44.780;20.408;2022-08-19T01:01:03;7.63;;;4.30;;
38847;SDS011;24602;44.780;20.408;2022-08-19T01:06:26;9.93;;;4.53;;
38847;SDS011;24602;44.780;20.408;2022-08-19T01:08:56;11.02;;;4.68;;
38847;SDS011;24602;44.780;20.408;2022-08-19T01:11:30;8.73;;;4.53;;
38847;SDS011;24602;44.780;20.408;2022-08-19T01:14:05;7.88;;;4.70;;
38847;SDS011;24602;44.780;20.408;2022-08-19T01:16:38;6.07;;;4.15;;
38847;SDS011;24602;44.780;20.408;2022-08-19T01:19:12;5.80;;;4.20;;
38847;SDS011;24602;44.780;20.408;2022-08-19T01:22:01;9.65;;;4.50;;
38847;SDS011;24602;44.780;20.408;2022-08-19T01:24:42;7.40;;;4.15;;
38847;SDS011;24602;44.780;20.408;2022-08-19T01:27:16;7.25;;;3.97;;
38847;SDS011;24602;44.780;20.408;2022-08-19T01:29:50;7.28;;;4.10;;
38847;SDS011;24602;44.780;20.408;2022-08-19T01:32:21;7.05;;;4.63;;
38847;SDS011;24602;44.780;20.408;2022-08-19T01:35:01;9.18;;;4.07;;
38847;SDS011;24602;44.780;20.408;2022-08-19T01:40:39;5.50;;;3.78;;
38847;SDS011;24602;44.780;20.408;2022-08-19T01:43:08;7.47;;;4.30;;
38847;SDS011;24602;44.780;20.408;2022-08-19T01:45:40;5.53;;;3.67;;
38847;SDS011;24602;44.780;20.408;2022-08-19T01:48:13;4.70;;;3.65;;
38847;SDS011;24602;44.780;20.408;2022-08-19T01:50:41;5.72;;;3.63;;
38847;SDS011;24602;44.780;20.408;2022-08-19T01:53:11;6.00;;;3.70;;
38847;SDS011;24602;44.780;20.408;2022-08-19T01:55:42;6.53;;;4.05;;
38847;SDS011;24602;44.780;20.408;2022-08-19T01:58:18;6.93;;;4.20;;
38847;SDS011;24602;44.780;20.408;2022-08-19T02:00:50;7.75;;;4.18;;
38847;SDS011;24602;44.780;20.408;2022-08-19T02:03:18;9.40;;;4.35;;
38847;SDS011;24602;44.780;20.408;2022-08-19T02:05:56;8.00;;;4.53;;
38847;SDS011;24602;44.780;20.408;2022-08-19T02:08:32;8.55;;;4.20;;
38847;SDS011;24602;44.780;20.408;2022-08-19T02:11:07;8.20;;;4.85;;
38847;SDS011;24602;44.780;20.408;2022-08-19T02:13:37;5.60;;;4.22;;
38847;SDS011;24602;44.780;20.408;2022-08-19T02:16:05;9.98;;;4.43;;
38847;SDS011;24602;44.780;20.408;2022-08-19T02:18:40;7.07;;;3.72;;
38847;SDS011;24602;44.780;20.408;2022-08-19T02:21:11;9.02;;;3.90;;
38847;SDS011;24602;44.780;20.408;2022-08-19T02:23:46;7.75;;;3.75;;
38847;SDS011;24602;44.780;20.408;2022-08-19T02:26:15;5.95;;;4.10;;
38847;SDS011;24602;44.780;20.408;2022-08-19T02:28:45;6.85;;;3.92;;
38847;SDS011;24602;44.780;20.408;2022-08-19T02:31:16;7.47;;;4.10;;
38847;SDS011;24602;44.780;20.408;2022-08-19T02:33:52;8.50;;;4.18;;
38847;SDS011;24602;44.780;20.408;2022-08-19T02:36:26;6.28;;;4.60;;
38847;SDS011;24602;44.780;20.408;2022-08-19T02:38:57;10.30;;;6.40;;
38847;SDS011;24602;44.780;20.408;2022-08-19T02:41:30;8.38;;;5.10;;
38847;SDS011;24602;44.780;20.408;2022-08-19T02:46:53;7.47;;;4.57;;
38847;SDS011;24602;44.780;20.408;2022-08-19T02:49:24;11.85;;;5.43;;
38847;SDS011;24602;44.780;20.408;2022-08-19T02:52:02;7.13;;;4.97;;
38847;SDS011;24602;44.780;20.408;2022-08-19T02:54:33;9.85;;;4.93;;
38847;SDS011;24602;44.780;20.408;2022-08-19T02:57:05;10.05;;;4.32;;
38847;SDS011;24602;44.780;20.408;2022-08-19T02:59:35;10.90;;;5.07;;
38847;SDS011;24602;44.780;20.408;2022-08-19T03:02:02;11.90;;;4.93;;
38847;SDS011;24602;44.780;20.408;2022-08-19T03:04:30;7.80;;;4.80;;
38847;SDS011;24602;44.780;20.408;2022-08-19T03:07:02;10.23;;;4.68;;
38847;SDS011;24602;44.780;20.408;2022-08-19T03:09:38;9.38;;;5.20;;
38847;SDS011;24602;44.780;20.408;2022-08-19T03:12:08;11.23;;;4.90;;
38847;SDS011;24602;44.780;20.408;2022-08-19T03:14:40;12.77;;;5.13;;
38847;SDS011;24602;44.780;20.408;2022-08-19T03:17:11;8.35;;;5.18;;
38847;SDS011;24602;44.780;20.408;2022-08-19T03:19:42;10.50;;;4.93;;
38847;SDS011;24602;44.780;20.408;2022-08-19T03:22:12;6.78;;;4.68;;
38847;SDS011;24602;44.780;20.408;2022-08-19T03:24:47;8.40;;;4.72;;
38847;SDS011;24602;44.780;20.408;2022-08-19T03:27:19;11.15;;;4.70;;
38847;SDS011;24602;44.780;20.408;2022-08-19T03:29:47;8.52;;;5.18;;
38847;SDS011;24602;44.780;20.408;2022-08-19T03:32:18;10.23;;;5.50;;
38847;SDS011;24602;44.780;20.408;2022-08-19T03:34:58;12.27;;;4.85;;
38847;SDS011;24602;44.780;20.408;2022-08-19T03:37:29;10.80;;;5.22;;
38847;SDS011;24602;44.780;20.408;2022-08-19T03:39:56;5.85;;;4.65;;
38847;SDS011;24602;44.780;20.408;2022-08-19T03:42:30;12.65;;;5.38;;
38847;SDS011;24602;44.780;20.408;2022-08-19T03:45:17;6.88;;;4.72;;
38847;SDS011;24602;44.780;20.408;2022-08-19T03:47:49;7.82;;;4.88;;
38847;SDS011;24602;44.780;20.408;2022-08-19T03:50:17;10.23;;;5.25;;
38847;SDS011;24602;44.780;20.408;2022-08-19T03:52:48;7.43;;;4.50;;
38847;SDS011;24602;44.780;20.408;2022-08-19T03:55:20;10.18;;;4.80;;
38847;SDS011;24602;44.780;20.408;2022-08-19T03:57:53;7.20;;;4.55;;
38847;SDS011;24602;44.780;20.408;2022-08-19T04:00:27;9.02;;;4.70;;
38847;SDS011;24602;44.780;20.408;2022-08-19T04:02:59;7.75;;;5.40;;
38847;SDS011;24602;44.780;20.408;2022-08-19T04:05:28;6.60;;;4.50;;
38847;SDS011;24602;44.780;20.408;2022-08-19T04:07:59;9.27;;;4.72;;
38847;SDS011;24602;44.780;20.408;2022-08-19T04:10:35;11.60;;;5.00;;
38847;SDS011;24602;44.780;20.408;2022-08-19T04:13:08;10.70;;;5.10;;
38847;SDS011;24602;44.780;20.408;2022-08-19T04:15:49;9.68;;;5.07;;
38847;SDS011;24602;44.780;20.408;2022-08-19T04:18:20;16.08;;;5.43;;
38847;SDS011;24602;44.780;20.408;2022-08-19T04:20:52;25.92;;;5.80;;
38847;SDS011;24602;44.780;20.408;2022-08-19T04:23:23;13.70;;;5.57;;
38847;SDS011;24602;44.780;20.408;2022-08-19T04:25:55;8.00;;;4.90;;
38847;SDS011;24602;44.780;20.408;2022-08-19T04:28:27;12.45;;;5.75;;
38847;SDS011;24602;44.780;20.408;2022-08-19T04:30:59;16.95;;;4.93;;
38847;SDS011;24602;44.780;20.408;2022-08-19T04:33:30;9.20;;;5.40;;
38847;SDS011;24602;44.780;20.408;2022-08-19T04:36:03;8.70;;;5.03;;
38847;SDS011;24602;44.780;20.408;2022-08-19T04:38:33;8.70;;;5.25;;
38847;SDS011;24602;44.780;20.408;2022-08-19T04:41:07;21.67;;;6.63;;
38847;SDS011;24602;44.780;20.408;2022-08-19T04:43:55;14.38;;;5.47;;
38847;SDS011;24602;44.780;20.408;2022-08-19T04:49:08;10.35;;;5.68;;
38847;SDS011;24602;44.780;20.408;2022-08-19T04:51:42;12.55;;;5.50;;
38847;SDS011;24602;44.780;20.408;2022-08-19T04:54:17;10.73;;;5.10;;
38847;SDS011;24602;44.780;20.408;2022-08-19T04:57:06;9.80;;;5.03;;
38847;SDS011;24602;44.780;20.408;2022-08-19T04:59:42;9.52;;;5.45;;
38847;SDS011;24602;44.780;20.408;2022-08-19T05:02:14;11.48;;;4.82;;
38847;SDS011;24602;44.780;20.408;2022-08-19T05:04:43;12.43;;;4.97;;
38847;SDS011;24602;44.780;20.408;2022-08-19T05:07:13;14.80;;;4.82;;
38847;SDS011;24602;44.780;20.408;2022-08-19T05:09:44;6.20;;;4.20;;
38847;SDS011;24602;44.780;20.408;2022-08-19T05:12:27;11.93;;;5.03;;
38847;SDS011;24602;44.780;20.408;2022-08-19T05:14:59;11.38;;;4.63;;
38847;SDS011;24602;44.780;20.408;2022-08-19T05:17:32;7.78;;;4.47;;
38847;SDS011;24602;44.780;20.408;2022-08-19T05:20:05;10.68;;;4.90;;
38847;SDS011;24602;44.780;20.408;2022-08-19T05:22:56;8.80;;;4.28;;
38847;SDS011;24602;44.780;20.408;2022-08-19T05:25:27;11.52;;;4.45;;
38847;SDS011;24602;44.780;20.408;2022-08-19T05:27:57;10.63;;;4.55;;
38847;SDS011;24602;44.780;20.408;2022-08-19T05:30:28;7.55;;;4.25;;
38847;SDS011;24602;44.780;20.408;2022-08-19T05:33:14;11.13;;;4.68;;
38847;SDS011;24602;44.780;20.408;2022-08-19T05:35:45;12.00;;;4.38;;
38847;SDS011;24602;44.780;20.408;2022-08-19T05:38:15;10.38;;;4.57;;
38847;SDS011;24602;44.780;20.408;2022-08-19T05:40:48;10.60;;;4.70;;
38847;SDS011;24602;44.780;20.408;2022-08-19T05:43:17;8.68;;;5.18;;
38847;SDS011;24602;44.780;20.408;2022-08-19T05:45:49;13.13;;;4.88;;
38847;SDS011;24602;44.780;20.408;2022-08-19T05:48:20;10.00;;;3.95;;
38847;SDS011;24602;44.780;20.408;2022-08-19T05:50:50;9.68;;;4.13;;
38847;SDS011;24602;44.780;20.408;2022-08-19T05:53:22;7.57;;;4.20;;
38847;SDS011;24602;44.780;20.408;2022-08-19T05:55:53;11.75;;;4.88;;
38847;SDS011;24602;44.780;20.408;2022-08-19T05:58:26;11.25;;;4.78;;
38847;SDS011;24602;44.780;20.408;2022-08-19T06:00:58;12.90;;;4.45;;
38847;SDS011;24602;44.780;20.408;2022-08-19T06:03:42;8.73;;;3.55;;
38847;SDS011;24602;44.780;20.408;2022-08-19T06:06:13;9.60;;;3.90;;
38847;SDS011;24602;44.780;20.408;2022-08-19T06:08:42;10.23;;;3.90;;
38847;SDS011;24602;44.780;20.408;2022-08-19T06:11:19;7.30;;;3.53;;
38847;SDS011;24602;44.780;20.408;2022-08-19T06:13:55;7.25;;;3.70;;
38847;SDS011;24602;44.780;20.408;2022-08-19T06:16:26;8.77;;;3.53;;
38847;SDS011;24602;44.780;20.408;2022-08-19T06:18:59;7.45;;;3.47;;
38847;SDS011;24602;44.780;20.408;2022-08-19T06:21:28;10.85;;;3.67;;
38847;SDS011;24602;44.780;20.408;2022-08-19T06:24:05;9.35;;;3.95;;
38847;SDS011;24602;44.780;20.408;2022-08-19T06:26:40;6.60;;;3.47;;
38847;SDS011;24602;44.780;20.408;2022-08-19T06:29:16;8.98;;;3.42;;
38847;SDS011;24602;44.780;20.408;2022-08-19T06:31:55;7.65;;;4.20;;
38847;SDS011;24602;44.780;20.408;2022-08-19T06:34:33;5.47;;;3.67;;
38847;SDS011;24602;44.780;20.408;2022-08-19T06:37:05;6.32;;;3.30;;
38847;SDS011;24602;44.780;20.408;2022-08-19T06:39:36;7.80;;;3.45;;
38847;SDS011;24602;44.780;20.408;2022-08-19T06:42:08;4.82;;;3.25;;
38847;SDS011;24602;44.780;20.408;2022-08-19T06:44:51;5.78;;;3.30;;
38847;SDS011;24602;44.780;20.408;2022-08-19T06:47:20;8.65;;;3.38;;
38847;SDS011;24602;44.780;20.408;2022-08-19T06:49:57;5.43;;;3.58;;
38847;SDS011;24602;44.780;20.408;2022-08-19T06:52:43;5.63;;;2.97;;
38847;SDS011;24602;44.780;20.408;2022-08-19T06:55:19;5.38;;;3.40;;
38847;SDS011;24602;44.780;20.408;2022-08-19T06:57:50;5.75;;;2.75;;
38847;SDS011;24602;44.780;20.408;2022-08-19T07:00:21;5.20;;;3.30;;
38847;SDS011;24602;44.780;20.408;2022-08-19T07:02:50;6.13;;;3.65;;
38847;SDS011;24602;44.780;20.408;2022-08-19T07:05:30;8.98;;;3.47;;
38847;SDS011;24602;44.780;20.408;2022-08-19T07:08:01;7.38;;;3.22;;
38847;SDS011;24602;44.780;20.408;2022-08-19T07:10:32;7.45;;;3.88;;
38847;SDS011;24602;44.780;20.408;2022-08-19T07:13:02;6.75;;;3.60;;
38847;SDS011;24602;44.780;20.408;2022-08-19T07:16:02;7.00;;;3.05;;
38847;SDS011;24602;44.780;20.408;2022-08-19T07:18:47;5.30;;;3.47;;
38847;SDS011;24602;44.780;20.408;2022-08-19T07:21:20;7.82;;;3.30;;
38847;SDS011;24602;44.780;20.408;2022-08-19T07:23:56;8.80;;;3.55;;
38847;SDS011;24602;44.780;20.408;2022-08-19T07:26:33;7.85;;;3.30;;
38847;SDS011;24602;44.780;20.408;2022-08-19T07:29:08;8.25;;;3.22;;
38847;SDS011;24602;44.780;20.408;2022-08-19T07:31:43;5.68;;;3.00;;
38847;SDS011;24602;44.780;20.408;2022-08-19T07:34:13;8.93;;;3.85;;
38847;SDS011;24602;44.780;20.408;2022-08-19T07:36:46;7.60;;;3.53;;
38847;SDS011;24602;44.780;20.408;2022-08-19T07:39:20;6.20;;;3.03;;
38847;SDS011;24602;44.780;20.408;2022-08-19T07:41:55;5.00;;;3.08;;
38847;SDS011;24602;44.780;20.408;2022-08-19T07:44:30;5.65;;;3.20;;
38847;SDS011;24602;44.780;20.408;2022-08-19T07:46:58;9.15;;;3.28;;
38847;SDS011;24602;44.780;20.408;2022-08-19T07:49:32;8.57;;;3.47;;
38847;SDS011;24602;44.780;20.408;2022-08-19T07:52:04;9.13;;;3.47;;
38847;SDS011;24602;44.780;20.408;2022-08-19T07:54:37;7.93;;;3.97;;
38847;SDS011;24602;44.780;20.408;2022-08-19T07:57:07;10.30;;;3.80;;
38847;SDS011;24602;44.780;20.408;2022-08-19T07:59:35;6.78;;;3.60;;
38847;SDS011;24602;44.780;20.408;2022-08-19T08:02:10;4.20;;;3.33;;
38847;SDS011;24602;44.780;20.408;2022-08-19T08:04:40;11.25;;;4.40;;
38847;SDS011;24602;44.780;20.408;2022-08-19T08:07:28;13.95;;;4.57;;
38847;SDS011;24602;44.780;20.408;2022-08-19T08:10:19;8.48;;;3.53;;
38847;SDS011;24602;44.780;20.408;2022-08-19T08:12:50;5.88;;;3.85;;
38847;SDS011;24602;44.780;20.408;2022-08-19T08:15:38;6.32;;;3.35;;
38847;SDS011;24602;44.780;20.408;2022-08-19T08:18:10;7.55;;;3.65;;
38847;SDS011;24602;44.780;20.408;2022-08-19T08:20:41;9.85;;;3.38;;
38847;SDS011;24602;44.780;20.408;2022-08-19T08:23:12;8.40;;;3.45;;
38847;SDS011;24602;44.780;20.408;2022-08-19T08:25:55;6.93;;;2.95;;
38847;SDS011;24602;44.780;20.408;2022-08-19T08:28:28;7.60;;;3.08;;
38847;SDS011;24602;44.780;20.408;2022-08-19T08:31:00;7.97;;;4.30;;
38847;SDS011;24602;44.780;20.408;2022-08-19T08:33:36;8.57;;;3.25;;
38847;SDS011;24602;44.780;20.408;2022-08-19T08:36:09;11.63;;;3.43;;
38847;SDS011;24602;44.780;20.408;2022-08-19T08:38:41;9.15;;;3.22;;
38847;SDS011;24602;44.780;20.408;2022-08-19T08:43:56;6.57;;;3.05;;
38847;SDS011;24602;44.780;20.408;2022-08-19T08:52:35;6.78;;;3.75;;
38847;SDS011;24602;44.780;20.408;2022-08-19T08:55:13;9.90;;;2.88;;
38847;SDS011;24602;44.780;20.408;2022-08-19T08:57:55;6.50;;;3.40;;
38847;SDS011;24602;44.780;20.408;2022-08-19T09:00:36;5.47;;;2.92;;
38847;SDS011;24602;44.780;20.408;2022-08-19T09:03:09;9.80;;;3.22;;
38847;SDS011;24602;44.780;20.408;2022-08-19T09:09:05;5.28;;;2.92;;
38847;SDS011;24602;44.780;20.408;2022-08-19T09:14:55;3.75;;;2.88;;
38847;SDS011;24602;44.780;20.408;2022-08-19T09:17:32;7.87;;;3.57;;
38847;SDS011;24602;44.780;20.408;2022-08-19T09:22:48;7.30;;;3.03;;
38847;SDS011;24602;44.780;20.408;2022-08-19T09:25:24;4.40;;;2.97;;
38847;SDS011;24602;44.780;20.408;2022-08-19T09:27:56;8.50;;;3.08;;
38847;SDS011;24602;44.780;20.408;2022-08-19T09:30:32;6.47;;;2.45;;
38847;SDS011;24602;44.780;20.408;2022-08-19T09:33:10;7.60;;;3.63;;
38847;SDS011;24602;44.780;20.408;2022-08-19T09:35:38;13.77;;;3.90;;
38847;SDS011;24602;44.780;20.408;2022-08-19T09:38:21;5.95;;;3.35;;
38847;SDS011;24602;44.780;20.408;2022-08-19T09:40:54;4.50;;;2.70;;
38847;SDS011;24602;44.780;20.408;2022-08-19T09:43:26;9.70;;;3.47;;
38847;SDS011;24602;44.780;20.408;2022-08-19T09:46:10;8.32;;;2.83;;
38847;SDS011;24602;44.780;20.408;2022-08-19T09:48:44;5.00;;;2.80;;
38847;SDS011;24602;44.780;20.408;2022-08-19T09:51:25;5.50;;;3.00;;
38847;SDS011;24602;44.780;20.408;2022-08-19T09:54:02;5.43;;;2.80;;
38847;SDS011;24602;44.780;20.408;2022-08-19T09:56:38;6.40;;;3.15;;
38847;SDS011;24602;44.780;20.408;2022-08-19T09:59:10;14.02;;;3.40;;
38847;SDS011;24602;44.780;20.408;2022-08-19T10:01:42;9.23;;;2.72;;
38847;SDS011;24602;44.780;20.408;2022-08-19T10:04:12;6.32;;;3.08;;
38847;SDS011;24602;44.780;20.408;2022-08-19T10:06:49;7.63;;;2.40;;
38847;SDS011;24602;44.780;20.408;2022-08-19T10:09:21;6.13;;;2.58;;
38847;SDS011;24602;44.780;20.408;2022-08-19T10:12:01;9.90;;;2.53;;
38847;SDS011;24602;44.780;20.408;2022-08-19T10:14:37;7.60;;;2.60;;
38847;SDS011;24602;44.780;20.408;2022-08-19T10:17:06;11.65;;;3.33;;
38847;SDS011;24602;44.780;20.408;2022-08-19T10:19:48;12.18;;;2.60;;
38847;SDS011;24602;44.780;20.408;2022-08-19T10:22:22;5.28;;;2.30;;
38847;SDS011;24602;44.780;20.408;2022-08-19T10:24:54;7.55;;;2.85;;
38847;SDS011;24602;44.780;20.408;2022-08-19T10:27:24;6.70;;;2.30;;
38847;SDS011;24602;44.780;20.408;2022-08-19T10:29:59;7.82;;;2.53;;
38847;SDS011;24602;44.780;20.408;2022-08-19T10:32:29;7.57;;;2.70;;
38847;SDS011;24602;44.780;20.408;2022-08-19T10:35:02;6.43;;;2.47;;
38847;SDS011;24602;44.780;20.408;2022-08-19T10:37:41;8.95;;;2.75;;
38847;SDS011;24602;44.780;20.408;2022-08-19T10:40:26;7.63;;;2.42;;
38847;SDS011;24602;44.780;20.408;2022-08-19T10:42:55;6.28;;;2.50;;
38847;SDS011;24602;44.780;20.408;2022-08-19T10:45:28;10.32;;;3.13;;
38847;SDS011;24602;44.780;20.408;2022-08-19T10:48:01;7.35;;;3.03;;
38847;SDS011;24602;44.780;20.408;2022-08-19T10:50:39;6.30;;;3.20;;
38847;SDS011;24602;44.780;20.408;2022-08-19T10:53:27;10.82;;;3.97;;
38847;SDS011;24602;44.780;20.408;2022-08-19T10:55:58;6.22;;;2.58;;
38847;SDS011;24602;44.780;20.408;2022-08-19T10:58:47;6.68;;;2.20;;
38847;SDS011;24602;44.780;20.408;2022-08-19T11:01:20;7.63;;;2.58;;
38847;SDS011;24602;44.780;20.408;2022-08-19T11:03:52;7.65;;;2.95;;
38847;SDS011;24602;44.780;20.408;2022-08-19T11:06:23;10.32;;;2.30;;
38847;SDS011;24602;44.780;20.408;2022-08-19T11:08:53;7.38;;;2.67;;
38847;SDS011;24602;44.780;20.408;2022-08-19T11:11:22;6.43;;;2.63;;
38847;SDS011;24602;44.780;20.408;2022-08-19T11:13:53;6.95;;;2.70;;
38847;SDS011;24602;44.780;20.408;2022-08-19T11:16:25;7.47;;;2.60;;
38847;SDS011;24602;44.780;20.408;2022-08-19T11:19:00;5.88;;;2.47;;
38847;SDS011;24602;44.780;20.408;2022-08-19T11:21:33;6.72;;;2.65;;
38847;SDS011;24602;44.780;20.408;2022-08-19T11:24:07;5.95;;;2.72;;
38847;SDS011;24602;44.780;20.408;2022-08-19T11:26:42;7.88;;;2.97;;
38847;SDS011;24602;44.780;20.408;2022-08-19T11:29:12;11.57;;;2.60;;
38847;SDS011;24602;44.780;20.408;2022-08-19T11:31:42;6.05;;;2.17;;
38847;SDS011;24602;44.780;20.408;2022-08-19T11:34:13;11.00;;;3.08;;
38847;SDS011;24602;44.780;20.408;2022-08-19T11:36:45;6.35;;;2.85;;
38847;SDS011;24602;44.780;20.408;2022-08-19T11:39:18;6.80;;;2.40;;
38847;SDS011;24602;44.780;20.408;2022-08-19T11:41:51;6.85;;;2.33;;
38847;SDS011;24602;44.780;20.408;2022-08-19T11:44:22;9.07;;;2.60;;
38847;SDS011;24602;44.780;20.408;2022-08-19T11:46:49;5.75;;;2.35;;
38847;SDS011;24602;44.780;20.408;2022-08-19T11:49:20;9.30;;;2.78;;
38847;SDS011;24602;44.780;20.408;2022-08-19T11:51:50;6.97;;;2.55;;
38847;SDS011;24602;44.780;20.408;2022-08-19T11:54:21;8.77;;;2.65;;
38847;SDS011;24602;44.780;20.408;2022-08-19T11:56:50;8.68;;;2.75;;
38847;SDS011;24602;44.780;20.408;2022-08-19T11:59:24;5.85;;;2.22;;
38847;SDS011;24602;44.780;20.408;2022-08-19T12:01:56;9.35;;;2.38;;
38847;SDS011;24602;44.780;20.408;2022-08-19T12:04:27;8.32;;;2.55;;
38847;SDS011;24602;44.780;20.408;2022-08-19T12:06:59;10.20;;;2.38;;
38847;SDS011;24602;44.780;20.408;2022-08-19T12:09:31;7.80;;;2.45;;
38847;SDS011;24602;44.780;20.408;2022-08-19T12:12:09;9.93;;;2.65;;
38847;SDS011;24602;44.780;20.408;2022-08-19T12:14:37;7.80;;;2.40;;
38847;SDS011;24602;44.780;20.408;2022-08-19T12:17:09;9.27;;;2.60;;
38847;SDS011;24602;44.780;20.408;2022-08-19T12:19:43;14.88;;;3.10;;
38847;SDS011;24602;44.780;20.408;2022-08-19T12:22:13;10.10;;;3.28;;
38847;SDS011;24602;44.780;20.408;2022-08-19T12:24:43;7.30;;;2.58;;
38847;SDS011;24602;44.780;20.408;2022-08-19T12:27:12;8.43;;;2.60;;
38847;SDS011;24602;44.780;20.408;2022-08-19T12:29:58;8.68;;;2.65;;
38847;SDS011;24602;44.780;20.408;2022-08-19T12:32:30;11.43;;;3.33;;
38847;SDS011;24602;44.780;20.408;2022-08-19T12:35:01;11.88;;;3.42;;
38847;SDS011;24602;44.780;20.408;2022-08-19T12:37:32;13.23;;;3.30;;
38847;SDS011;24602;44.780;20.408;2022-08-19T12:40:07;8.85;;;3.30;;
38847;SDS011;24602;44.780;20.408;2022-08-19T12:42:39;8.98;;;3.10;;
38847;SDS011;24602;44.780;20.408;2022-08-19T12:45:12;11.90;;;3.15;;
38847;SDS011;24602;44.780;20.408;2022-08-19T12:47:47;10.55;;;2.92;;
38847;SDS011;24602;44.780;20.408;2022-08-19T12:50:21;9.88;;;3.40;;
38847;SDS011;24602;44.780;20.408;2022-08-19T12:52:51;9.23;;;2.90;;
38847;SDS011;24602;44.780;20.408;2022-08-19T12:55:19;9.05;;;2.45;;
38847;SDS011;24602;44.780;20.408;2022-08-19T12:57:50;8.52;;;2.88;;
38847;SDS011;24602;44.780;20.408;2022-08-19T13:00:21;6.38;;;2.78;;
38847;SDS011;24602;44.780;20.408;2022-08-19T13:02:53;5.88;;;2.78;;
38847;SDS011;24602;44.780;20.408;2022-08-19T13:05:27;13.43;;;3.00;;
38847;SDS011;24602;44.780;20.408;2022-08-19T13:07:59;11.90;;;2.92;;
38847;SDS011;24602;44.780;20.408;2022-08-19T13:10:33;10.63;;;3.33;;
38847;SDS011;24602;44.780;20.408;2022-08-19T13:13:14;6.28;;;2.42;;
38847;SDS011;24602;44.780;20.408;2022-08-19T13:15:45;14.18;;;3.00;;
38847;SDS011;24602;44.780;20.408;2022-08-19T13:18:14;16.13;;;3.28;;
38847;SDS011;24602;44.780;20.408;2022-08-19T13:20:42;10.20;;;2.70;;
38847;SDS011;24602;44.780;20.408;2022-08-19T13:23:18;11.65;;;3.00;;
38847;SDS011;24602;44.780;20.408;2022-08-19T13:26:02;8.18;;;3.25;;
38847;SDS011;24602;44.780;20.408;2022-08-19T13:28:37;13.25;;;3.35;;
38847;SDS011;24602;44.780;20.408;2022-08-19T13:31:30;9.40;;;2.80;;
38847;SDS011;24602;44.780;20.408;2022-08-19T13:34:31;11.13;;;2.97;;
38847;SDS011;24602;44.780;20.408;2022-08-19T13:37:02;12.43;;;2.92;;
38847;SDS011;24602;44.780;20.408;2022-08-19T13:39:31;10.77;;;2.88;;
38847;SDS011;24602;44.780;20.408;2022-08-19T13:42:04;10.45;;;3.35;;
38847;SDS011;24602;44.780;20.408;2022-08-19T13:44:35;9.80;;;3.70;;
38847;SDS011;24602;44.780;20.408;2022-08-19T13:47:06;13.45;;;2.95;;
38847;SDS011;24602;44.780;20.408;2022-08-19T13:49:37;8.63;;;2.80;;
38847;SDS011;24602;44.780;20.408;2022-08-19T13:52:08;7.18;;;2.97;;
38847;SDS011;24602;44.780;20.408;2022-08-19T13:54:36;8.05;;;2.70;;
38847;SDS011;24602;44.780;20.408;2022-08-19T13:57:05;9.93;;;3.08;;
38847;SDS011;24602;44.780;20.408;2022-08-19T13:59:33;8.65;;;2.72;;
38847;SDS011;24602;44.780;20.408;2022-08-19T14:02:07;6.05;;;2.78;;
38847;SDS011;24602;44.780;20.408;2022-08-19T14:04:38;6.22;;;2.78;;
38847;SDS011;24602;44.780;20.408;2022-08-19T14:07:08;9.93;;;2.72;;
38847;SDS011;24602;44.780;20.408;2022-08-19T14:09:37;14.50;;;3.17;;
38847;SDS011;24602;44.780;20.408;2022-08-19T14:12:12;6.80;;;2.45;;
38847;SDS011;24602;44.780;20.408;2022-08-19T14:14:55;9.18;;;2.70;;
38847;SDS011;24602;44.780;20.408;2022-08-19T14:17:25;13.38;;;2.97;;
38847;SDS011;24602;44.780;20.408;2022-08-19T14:19:59;9.35;;;2.60;;
38847;SDS011;24602;44.780;20.408;2022-08-19T14:22:46;11.57;;;3.70;;
38847;SDS011;24602;44.780;20.408;2022-08-19T14:25:20;8.27;;;2.58;;
38847;SDS011;24602;44.780;20.408;2022-08-19T14:27:54;8.65;;;2.75;;
38847;SDS011;24602;44.780;20.408;2022-08-19T14:30:27;9.25;;;2.65;;
38847;SDS011;24602;44.780;20.408;2022-08-19T14:32:57;7.78;;;3.25;;
38847;SDS011;24602;44.780;20.408;2022-08-19T14:35:27;7.53;;;2.97;;
38847;SDS011;24602;44.780;20.408;2022-08-19T14:38:00;10.10;;;3.23;;
38847;SDS011;24602;44.780;20.408;2022-08-19T14:40:32;8.75;;;3.58;;
38847;SDS011;24602;44.780;20.408;2022-08-19T14:43:05;9.27;;;3.45;;
38847;SDS011;24602;44.780;20.408;2022-08-19T14:45:36;8.23;;;3.10;;
38847;SDS011;24602;44.780;20.408;2022-08-19T14:48:09;7.78;;;2.25;;
38847;SDS011;24602;44.780;20.408;2022-08-19T14:50:45;8.55;;;2.85;;
38847;SDS011;24602;44.780;20.408;2022-08-19T14:53:17;8.32;;;2.80;;
38847;SDS011;24602;44.780;20.408;2022-08-19T14:55:48;7.90;;;2.60;;
38847;SDS011;24602;44.780;20.408;2022-08-19T14:58:19;8.02;;;2.63;;
38847;SDS011;24602;44.780;20.408;2022-08-19T15:00:58;7.18;;;2.75;;
38847;SDS011;24602;44.780;20.408;2022-08-19T15:03:27;12.85;;;3.83;;
38847;SDS011;24602;44.780;20.408;2022-08-19T15:06:03;18.80;;;3.63;;
38847;SDS011;24602;44.780;20.408;2022-08-19T15:08:35;26.98;;;5.45;;
38847;SDS011;24602;44.780;20.408;2022-08-19T15:11:10;30.92;;;5.90;;
38847;SDS011;24602;44.780;20.408;2022-08-19T15:13:44;32.63;;;5.75;;
38847;SDS011;24602;44.780;20.408;2022-08-19T15:16:14;31.80;;;5.25;;
38847;SDS011;24602;44.780;20.408;2022-08-19T15:18:49;34.05;;;4.85;;
38847;SDS011;24602;44.780;20.408;2022-08-19T15:21:23;30.95;;;4.68;;
38847;SDS011;24602;44.780;20.408;2022-08-19T15:23:54;37.75;;;5.22;;
38847;SDS011;24602;44.780;20.408;2022-08-19T15:26:26;38.45;;;6.45;;
38847;SDS011;24602;44.780;20.408;2022-08-19T15:29:06;38.60;;;5.10;;
38847;SDS011;24602;44.780;20.408;2022-08-19T15:31:37;29.27;;;4.68;;
38847;SDS011;24602;44.780;20.408;2022-08-19T15:34:10;27.05;;;4.75;;
38847;SDS011;24602;44.780;20.408;2022-08-19T15:36:41;25.45;;;4.75;;
38847;SDS011;24602;44.780;20.408;2022-08-19T15:39:09;32.45;;;3.83;;